sensor_id;sensor_type;location;lat;lon;timestamp;P1;durP1;ratioP1;P2;durP2;ratioP2
10458;SDS011;5277;48.722;8.736;2022-09-21T00:00:38;11.80;;;2.80;;
10458;SDS011;5277;48.722;8.736;2022-09-21T00:03:04;5.23;;;3.17;;
10458;SDS011;5277;48.722;8.736;2022-09-21T00:05:31;6.27;;;3.47;;
10458;SDS011;5277;48.722;8.736;2022-09-21T00:08:01;4.57;;;2.70;;
10458;SDS011;5277;48.722;8.736;2022-09-21T00:10:28;4.50;;;3.00;;
10458;SDS011;5277;48.722;8.736;2022-09-21T00:12:54;3.63;;;2.67;;
10458;SDS011;5277;48.722;8.736;2022-09-21T00:15:20;6.00;;;2.63;;
10458;SDS011;5277;48.722;8.736;2022-09-21T00:17:46;5.87;;;2.80;;
10458;SDS011;5277;48.722;8.736;2022-09-21T00:20:16;4.80;;;2.80;;
10458;SDS011;5277;48.722;8.736;2022-09-21T00:22:42;3.87;;;2.70;;
10458;SDS011;5277;48.722;8.736;2022-09-21T00:25:08;6.07;;;2.80;;
10458;SDS011;5277;48.722;8.736;2022-09-21T00:27:34;6.43;;;2.90;;
10458;SDS011;5277;48.722;8.736;2022-09-21T00:30:00;8.83;;;3.50;;
10458;SDS011;5277;48.722;8.736;2022-09-21T00:32:27;5.10;;;3.20;;
10458;SDS011;5277;48.722;8.736;2022-09-21T00:34:55;7.57;;;3.33;;
10458;SDS011;5277;48.722;8.736;2022-09-21T00:37:22;6.23;;;3.07;;
10458;SDS011;5277;48.722;8.736;2022-09-21T00:39:48;5.23;;;2.87;;
10458;SDS011;5277;48.722;8.736;2022-09-21T00:42:19;4.37;;;2.60;;
10458;SDS011;5277;48.722;8.736;2022-09-21T00:44:48;5.40;;;3.43;;
10458;SDS011;5277;48.722;8.736;2022-09-21T00:47:15;5.33;;;3.47;;
10458;SDS011;5277;48.722;8.736;2022-09-21T00:49:44;7.83;;;3.03;;
10458;SDS011;5277;48.722;8.736;2022-09-21T00:52:13;6.57;;;3.10;;
10458;SDS011;5277;48.722;8.736;2022-09-21T00:54:52;4.83;;;3.00;;
10458;SDS011;5277;48.722;8.736;2022-09-21T00:57:22;5.17;;;2.93;;
10458;SDS011;5277;48.722;8.736;2022-09-21T00:59:50;7.30;;;3.20;;
10458;SDS011;5277;48.722;8.736;2022-09-21T01:02:20;7.47;;;2.80;;
10458;SDS011;5277;48.722;8.736;2022-09-21T01:04:46;5.73;;;2.93;;
10458;SDS011;5277;48.722;8.736;2022-09-21T01:07:14;4.87;;;2.83;;
10458;SDS011;5277;48.722;8.736;2022-09-21T01:09:46;9.73;;;3.13;;
10458;SDS011;5277;48.722;8.736;2022-09-21T01:15:08;6.23;;;3.10;;
10458;SDS011;5277;48.722;8.736;2022-09-21T01:17:49;5.90;;;2.77;;
10458;SDS011;5277;48.722;8.736;2022-09-21T01:21:03;7.20;;;3.17;;
10458;SDS011;5277;48.722;8.736;2022-09-21T01:24:07;6.03;;;2.73;;
10458;SDS011;5277;48.722;8.736;2022-09-21T01:29:09;3.80;;;2.50;;
10458;SDS011;5277;48.722;8.736;2022-09-21T01:37:09;4.87;;;2.83;;
10458;SDS011;5277;48.722;8.736;2022-09-21T01:39:39;5.73;;;2.60;;
10458;SDS011;5277;48.722;8.736;2022-09-21T01:42:08;6.07;;;3.00;;
10458;SDS011;5277;48.722;8.736;2022-09-21T01:44:37;9.43;;;3.40;;
10458;SDS011;5277;48.722;8.736;2022-09-21T01:47:06;7.43;;;3.30;;
10458;SDS011;5277;48.722;8.736;2022-09-21T01:49:35;5.83;;;3.27;;
10458;SDS011;5277;48.722;8.736;2022-09-21T01:55:00;5.97;;;3.70;;
10458;SDS011;5277;48.722;8.736;2022-09-21T01:57:46;7.27;;;3.70;;
10458;SDS011;5277;48.722;8.736;2022-09-21T02:00:23;7.90;;;3.80;;
10458;SDS011;5277;48.722;8.736;2022-09-21T02:02:50;6.00;;;3.90;;
10458;SDS011;5277;48.722;8.736;2022-09-21T02:05:23;7.87;;;3.33;;
10458;SDS011;5277;48.722;8.736;2022-09-21T02:07:52;4.23;;;3.40;;
10458;SDS011;5277;48.722;8.736;2022-09-21T02:10:30;4.47;;;3.40;;
10458;SDS011;5277;48.722;8.736;2022-09-21T02:12:57;4.27;;;3.50;;
10458;SDS011;5277;48.722;8.736;2022-09-21T02:16:12;6.90;;;3.03;;
10458;SDS011;5277;48.722;8.736;2022-09-21T02:18:15;8.13;;;2.83;;
10458;SDS011;5277;48.722;8.736;2022-09-21T02:20:48;6.83;;;3.37;;
10458;SDS011;5277;48.722;8.736;2022-09-21T02:23:22;6.87;;;3.50;;
10458;SDS011;5277;48.722;8.736;2022-09-21T02:28:32;12.33;;;4.03;;
10458;SDS011;5277;48.722;8.736;2022-09-21T02:31:20;23.33;;;5.13;;
10458;SDS011;5277;48.722;8.736;2022-09-21T02:36:45;6.63;;;3.37;;
10458;SDS011;5277;48.722;8.736;2022-09-21T02:39:28;3.97;;;2.87;;
10458;SDS011;5277;48.722;8.736;2022-09-21T02:42:17;11.83;;;3.50;;
10458;SDS011;5277;48.722;8.736;2022-09-21T02:44:54;15.20;;;7.87;;
10458;SDS011;5277;48.722;8.736;2022-09-21T02:50:34;7.53;;;3.90;;
10458;SDS011;5277;48.722;8.736;2022-09-21T02:53:18;10.33;;;4.30;;
10458;SDS011;5277;48.722;8.736;2022-09-21T02:56:04;28.17;;;3.83;;
10458;SDS011;5277;48.722;8.736;2022-09-21T02:58:43;31.50;;;5.30;;
10458;SDS011;5277;48.722;8.736;2022-09-21T03:01:12;9.87;;;5.40;;
10458;SDS011;5277;48.722;8.736;2022-09-21T03:03:40;25.37;;;5.30;;
10458;SDS011;5277;48.722;8.736;2022-09-21T03:06:06;7.17;;;4.70;;
10458;SDS011;5277;48.722;8.736;2022-09-21T03:08:31;8.03;;;5.83;;
10458;SDS011;5277;48.722;8.736;2022-09-21T03:10:57;7.40;;;4.50;;
10458;SDS011;5277;48.722;8.736;2022-09-21T03:13:23;4.47;;;3.87;;
10458;SDS011;5277;48.722;8.736;2022-09-21T03:15:49;7.27;;;6.27;;
10458;SDS011;5277;48.722;8.736;2022-09-21T03:18:23;5.50;;;4.17;;
10458;SDS011;5277;48.722;8.736;2022-09-21T03:20:48;6.37;;;4.30;;
10458;SDS011;5277;48.722;8.736;2022-09-21T03:23:14;4.87;;;3.67;;
10458;SDS011;5277;48.722;8.736;2022-09-21T03:25:42;6.33;;;4.00;;
10458;SDS011;5277;48.722;8.736;2022-09-21T03:28:09;3.97;;;3.30;;
10458;SDS011;5277;48.722;8.736;2022-09-21T03:30:36;5.40;;;4.00;;
10458;SDS011;5277;48.722;8.736;2022-09-21T03:33:02;8.77;;;4.03;;
10458;SDS011;5277;48.722;8.736;2022-09-21T03:35:29;5.90;;;4.07;;
10458;SDS011;5277;48.722;8.736;2022-09-21T03:37:58;6.03;;;3.97;;
10458;SDS011;5277;48.722;8.736;2022-09-21T03:40:24;6.50;;;3.87;;
10458;SDS011;5277;48.722;8.736;2022-09-21T03:42:51;4.57;;;3.70;;
10458;SDS011;5277;48.722;8.736;2022-09-21T03:45:18;11.23;;;3.80;;
10458;SDS011;5277;48.722;8.736;2022-09-21T03:47:46;7.63;;;3.67;;
10458;SDS011;5277;48.722;8.736;2022-09-21T03:50:12;14.17;;;3.87;;
10458;SDS011;5277;48.722;8.736;2022-09-21T03:52:38;5.20;;;3.30;;
10458;SDS011;5277;48.722;8.736;2022-09-21T03:55:05;4.23;;;3.30;;
10458;SDS011;5277;48.722;8.736;2022-09-21T03:57:32;5.10;;;3.27;;
10458;SDS011;5277;48.722;8.736;2022-09-21T03:59:59;4.80;;;3.20;;
10458;SDS011;5277;48.722;8.736;2022-09-21T04:02:27;4.33;;;3.23;;
10458;SDS011;5277;48.722;8.736;2022-09-21T04:04:53;7.83;;;6.30;;
10458;SDS011;5277;48.722;8.736;2022-09-21T04:07:19;6.23;;;3.80;;
10458;SDS011;5277;48.722;8.736;2022-09-21T04:09:45;6.97;;;3.83;;
10458;SDS011;5277;48.722;8.736;2022-09-21T04:12:10;5.10;;;3.07;;
10458;SDS011;5277;48.722;8.736;2022-09-21T04:14:37;4.00;;;3.40;;
10458;SDS011;5277;48.722;8.736;2022-09-21T04:17:02;6.70;;;2.93;;
10458;SDS011;5277;48.722;8.736;2022-09-21T04:19:28;5.90;;;3.07;;
10458;SDS011;5277;48.722;8.736;2022-09-21T04:21:54;7.70;;;3.17;;
10458;SDS011;5277;48.722;8.736;2022-09-21T04:24:20;6.13;;;3.57;;
10458;SDS011;5277;48.722;8.736;2022-09-21T04:26:46;4.00;;;3.30;;
10458;SDS011;5277;48.722;8.736;2022-09-21T04:29:12;8.20;;;3.13;;
10458;SDS011;5277;48.722;8.736;2022-09-21T04:31:39;5.17;;;3.47;;
10458;SDS011;5277;48.722;8.736;2022-09-21T04:34:05;9.37;;;3.63;;
10458;SDS011;5277;48.722;8.736;2022-09-21T04:36:31;6.27;;;3.10;;
10458;SDS011;5277;48.722;8.736;2022-09-21T04:38:57;4.43;;;3.63;;
10458;SDS011;5277;48.722;8.736;2022-09-21T04:41:25;8.70;;;5.53;;
10458;SDS011;5277;48.722;8.736;2022-09-21T04:43:51;6.33;;;4.30;;
10458;SDS011;5277;48.722;8.736;2022-09-21T04:46:17;8.63;;;4.83;;
10458;SDS011;5277;48.722;8.736;2022-09-21T04:48:45;10.97;;;7.27;;
10458;SDS011;5277;48.722;8.736;2022-09-21T04:51:12;11.47;;;7.63;;
10458;SDS011;5277;48.722;8.736;2022-09-21T04:53:39;14.03;;;7.63;;
10458;SDS011;5277;48.722;8.736;2022-09-21T04:56:07;18.20;;;11.80;;
10458;SDS011;5277;48.722;8.736;2022-09-21T04:58:33;23.17;;;12.50;;
10458;SDS011;5277;48.722;8.736;2022-09-21T05:00:59;29.10;;;16.43;;
10458;SDS011;5277;48.722;8.736;2022-09-21T05:03:26;43.03;;;23.17;;
10458;SDS011;5277;48.722;8.736;2022-09-21T05:05:53;34.13;;;21.23;;
10458;SDS011;5277;48.722;8.736;2022-09-21T05:08:21;34.20;;;19.37;;
10458;SDS011;5277;48.722;8.736;2022-09-21T05:11:07;21.13;;;12.80;;
10458;SDS011;5277;48.722;8.736;2022-09-21T05:13:34;12.13;;;8.63;;
10458;SDS011;5277;48.722;8.736;2022-09-21T05:15:59;10.40;;;7.50;;
10458;SDS011;5277;48.722;8.736;2022-09-21T05:18:25;5.93;;;4.07;;
10458;SDS011;5277;48.722;8.736;2022-09-21T05:20:54;5.13;;;3.43;;
10458;SDS011;5277;48.722;8.736;2022-09-21T05:23:22;8.43;;;3.10;;
10458;SDS011;5277;48.722;8.736;2022-09-21T05:25:48;6.93;;;3.83;;
10458;SDS011;5277;48.722;8.736;2022-09-21T05:28:18;7.07;;;3.77;;
10458;SDS011;5277;48.722;8.736;2022-09-21T05:30:44;7.07;;;4.00;;
10458;SDS011;5277;48.722;8.736;2022-09-21T05:33:30;6.80;;;3.90;;
10458;SDS011;5277;48.722;8.736;2022-09-21T05:38:40;6.70;;;3.90;;
10458;SDS011;5277;48.722;8.736;2022-09-21T05:41:07;4.83;;;3.57;;
10458;SDS011;5277;48.722;8.736;2022-09-21T05:43:33;7.07;;;3.30;;
10458;SDS011;5277;48.722;8.736;2022-09-21T05:46:03;6.10;;;4.43;;
10458;SDS011;5277;48.722;8.736;2022-09-21T05:48:41;7.67;;;4.53;;
10458;SDS011;5277;48.722;8.736;2022-09-21T06:02:57;10.43;;;3.10;;
10458;SDS011;5277;48.722;8.736;2022-09-21T06:05:41;9.20;;;3.60;;
10458;SDS011;5277;48.722;8.736;2022-09-21T06:08:08;5.10;;;3.30;;
10458;SDS011;5277;48.722;8.736;2022-09-21T06:10:34;9.03;;;3.53;;
10458;SDS011;5277;48.722;8.736;2022-09-21T06:13:00;4.23;;;3.73;;
10458;SDS011;5277;48.722;8.736;2022-09-21T06:15:25;5.07;;;3.20;;
10458;SDS011;5277;48.722;8.736;2022-09-21T06:17:51;6.50;;;3.50;;
10458;SDS011;5277;48.722;8.736;2022-09-21T06:20:17;12.77;;;3.87;;
10458;SDS011;5277;48.722;8.736;2022-09-21T06:22:42;6.23;;;3.50;;
10458;SDS011;5277;48.722;8.736;2022-09-21T06:25:08;6.43;;;3.53;;
10458;SDS011;5277;48.722;8.736;2022-09-21T06:27:34;22.37;;;3.93;;
10458;SDS011;5277;48.722;8.736;2022-09-21T06:30:00;3.80;;;3.07;;
10458;SDS011;5277;48.722;8.736;2022-09-21T06:32:26;4.43;;;3.33;;
10458;SDS011;5277;48.722;8.736;2022-09-21T06:34:51;5.50;;;3.20;;
10458;SDS011;5277;48.722;8.736;2022-09-21T06:37:17;4.97;;;3.20;;
10458;SDS011;5277;48.722;8.736;2022-09-21T06:39:42;7.87;;;3.30;;
10458;SDS011;5277;48.722;8.736;2022-09-21T06:42:08;6.03;;;3.27;;
10458;SDS011;5277;48.722;8.736;2022-09-21T06:44:34;3.60;;;2.80;;
10458;SDS011;5277;48.722;8.736;2022-09-21T06:46:59;7.97;;;3.50;;
10458;SDS011;5277;48.722;8.736;2022-09-21T06:49:25;5.30;;;3.37;;
10458;SDS011;5277;48.722;8.736;2022-09-21T06:51:54;5.07;;;3.37;;
10458;SDS011;5277;48.722;8.736;2022-09-21T06:54:19;4.10;;;3.47;;
10458;SDS011;5277;48.722;8.736;2022-09-21T06:56:45;3.90;;;3.30;;
10458;SDS011;5277;48.722;8.736;2022-09-21T06:59:11;9.03;;;6.50;;
10458;SDS011;5277;48.722;8.736;2022-09-21T07:01:37;4.50;;;3.70;;
10458;SDS011;5277;48.722;8.736;2022-09-21T07:04:03;4.20;;;3.57;;
10458;SDS011;5277;48.722;8.736;2022-09-21T07:06:28;8.40;;;5.00;;
10458;SDS011;5277;48.722;8.736;2022-09-21T07:08:54;6.47;;;3.93;;
10458;SDS011;5277;48.722;8.736;2022-09-21T07:11:20;7.03;;;3.50;;
10458;SDS011;5277;48.722;8.736;2022-09-21T07:13:48;4.03;;;3.23;;
10458;SDS011;5277;48.722;8.736;2022-09-21T07:16:14;4.87;;;3.50;;
10458;SDS011;5277;48.722;8.736;2022-09-21T07:18:40;4.10;;;3.20;;
10458;SDS011;5277;48.722;8.736;2022-09-21T07:21:08;3.37;;;2.70;;
10458;SDS011;5277;48.722;8.736;2022-09-21T07:23:35;3.57;;;2.97;;
10458;SDS011;5277;48.722;8.736;2022-09-21T07:26:01;5.17;;;3.43;;
10458;SDS011;5277;48.722;8.736;2022-09-21T07:28:29;12.83;;;8.07;;
10458;SDS011;5277;48.722;8.736;2022-09-21T07:30:55;4.27;;;3.83;;
10458;SDS011;5277;48.722;8.736;2022-09-21T07:33:22;7.00;;;4.27;;
10458;SDS011;5277;48.722;8.736;2022-09-21T07:35:51;5.17;;;3.70;;
10458;SDS011;5277;48.722;8.736;2022-09-21T07:38:18;5.80;;;3.43;;
10458;SDS011;5277;48.722;8.736;2022-09-21T07:40:43;5.53;;;3.10;;
10458;SDS011;5277;48.722;8.736;2022-09-21T07:43:09;4.07;;;3.37;;
10458;SDS011;5277;48.722;8.736;2022-09-21T07:45:35;3.90;;;3.20;;
10458;SDS011;5277;48.722;8.736;2022-09-21T07:48:04;6.13;;;3.50;;
10458;SDS011;5277;48.722;8.736;2022-09-21T07:50:31;6.10;;;2.90;;
10458;SDS011;5277;48.722;8.736;2022-09-21T07:53:00;5.13;;;3.97;;
10458;SDS011;5277;48.722;8.736;2022-09-21T07:55:27;3.50;;;2.90;;
10458;SDS011;5277;48.722;8.736;2022-09-21T07:57:53;6.35;;;3.63;;
10458;SDS011;5277;48.722;8.736;2022-09-21T08:00:38;5.28;;;3.10;;
10458;SDS011;5277;48.722;8.736;2022-09-21T08:03:04;4.28;;;3.75;;
10458;SDS011;5277;48.722;8.736;2022-09-21T08:05:31;3.88;;;2.55;;
10458;SDS011;5277;48.722;8.736;2022-09-21T08:07:57;3.13;;;2.83;;
10458;SDS011;5277;48.722;8.736;2022-09-21T08:10:23;4.05;;;2.83;;
10458;SDS011;5277;48.722;8.736;2022-09-21T08:12:50;2.88;;;2.33;;
10458;SDS011;5277;48.722;8.736;2022-09-21T08:15:15;4.20;;;2.78;;
10458;SDS011;5277;48.722;8.736;2022-09-21T08:17:41;4.72;;;2.88;;
10458;SDS011;5277;48.722;8.736;2022-09-21T08:20:08;5.38;;;3.38;;
10458;SDS011;5277;48.722;8.736;2022-09-21T08:22:34;5.65;;;3.33;;
10458;SDS011;5277;48.722;8.736;2022-09-21T08:24:59;5.47;;;3.10;;
10458;SDS011;5277;48.722;8.736;2022-09-21T08:27:25;3.55;;;2.72;;
10458;SDS011;5277;48.722;8.736;2022-09-21T08:29:51;3.53;;;2.70;;
10458;SDS011;5277;48.722;8.736;2022-09-21T08:32:17;4.40;;;3.10;;
10458;SDS011;5277;48.722;8.736;2022-09-21T08:34:42;3.15;;;2.83;;
10458;SDS011;5277;48.722;8.736;2022-09-21T08:37:08;4.10;;;2.92;;
10458;SDS011;5277;48.722;8.736;2022-09-21T08:39:34;5.10;;;2.65;;
10458;SDS011;5277;48.722;8.736;2022-09-21T08:44:50;4.82;;;2.80;;
10458;SDS011;5277;48.722;8.736;2022-09-21T08:47:35;3.95;;;2.70;;
10458;SDS011;5277;48.722;8.736;2022-09-21T08:50:01;3.70;;;2.78;;
10458;SDS011;5277;48.722;8.736;2022-09-21T08:52:29;8.35;;;2.97;;
10458;SDS011;5277;48.722;8.736;2022-09-21T08:54:59;4.30;;;2.50;;
10458;SDS011;5277;48.722;8.736;2022-09-21T08:57:29;6.47;;;2.60;;
10458;SDS011;5277;48.722;8.736;2022-09-21T08:59:57;4.03;;;2.85;;
10458;SDS011;5277;48.722;8.736;2022-09-21T09:05:05;4.28;;;2.00;;
10458;SDS011;5277;48.722;8.736;2022-09-21T09:16:17;5.30;;;1.50;;
10458;SDS011;5277;48.722;8.736;2022-09-21T09:18:56;2.55;;;1.40;;
10458;SDS011;5277;48.722;8.736;2022-09-21T09:21:39;4.28;;;1.90;;
10458;SDS011;5277;48.722;8.736;2022-09-21T09:24:14;4.78;;;1.70;;
10458;SDS011;5277;48.722;8.736;2022-09-21T09:27:11;3.67;;;1.23;;
10458;SDS011;5277;48.722;8.736;2022-09-21T09:32:45;6.28;;;2.00;;
10458;SDS011;5277;48.722;8.736;2022-09-21T09:35:30;4.40;;;1.92;;
10458;SDS011;5277;48.722;8.736;2022-09-21T09:38:12;6.72;;;2.00;;
10458;SDS011;5277;48.722;8.736;2022-09-21T09:51:53;4.10;;;1.30;;
10458;SDS011;5277;48.722;8.736;2022-09-21T09:54:19;3.50;;;1.20;;
10458;SDS011;5277;48.722;8.736;2022-09-21T09:56:48;3.90;;;1.60;;
10458;SDS011;5277;48.722;8.736;2022-09-21T09:59:18;1.83;;;1.10;;
10458;SDS011;5277;48.722;8.736;2022-09-21T10:04:26;1.73;;;1.00;;
10458;SDS011;5277;48.722;8.736;2022-09-21T10:06:52;2.30;;;1.10;;
10458;SDS011;5277;48.722;8.736;2022-09-21T10:12:00;3.80;;;1.20;;
10458;SDS011;5277;48.722;8.736;2022-09-21T10:14:38;3.00;;;1.10;;
10458;SDS011;5277;48.722;8.736;2022-09-21T10:17:24;5.18;;;1.10;;
10458;SDS011;5277;48.722;8.736;2022-09-21T10:20:00;2.33;;;1.33;;
10458;SDS011;5277;48.722;8.736;2022-09-21T10:22:28;1.77;;;1.00;;
10458;SDS011;5277;48.722;8.736;2022-09-21T10:24:54;2.08;;;1.20;;
10458;SDS011;5277;48.722;8.736;2022-09-21T10:27:26;3.20;;;1.10;;
10458;SDS011;5277;48.722;8.736;2022-09-21T10:29:59;2.25;;;1.00;;
10458;SDS011;5277;48.722;8.736;2022-09-21T10:32:28;3.47;;;1.38;;
10458;SDS011;5277;48.722;8.736;2022-09-21T10:35:13;4.25;;;1.30;;
10458;SDS011;5277;48.722;8.736;2022-09-21T10:37:42;2.75;;;1.20;;
10458;SDS011;5277;48.722;8.736;2022-09-21T10:42:44;3.08;;;1.13;;
10458;SDS011;5277;48.722;8.736;2022-09-21T10:45:14;4.50;;;1.40;;
10458;SDS011;5277;48.722;8.736;2022-09-21T10:47:49;6.25;;;1.30;;
10458;SDS011;5277;48.722;8.736;2022-09-21T10:58:28;2.42;;;1.20;;
10458;SDS011;5277;48.722;8.736;2022-09-21T11:00:55;1.85;;;1.10;;
10458;SDS011;5277;48.722;8.736;2022-09-21T11:06:29;2.72;;;1.10;;
10458;SDS011;5277;48.722;8.736;2022-09-21T11:14:18;3.95;;;1.00;;
10458;SDS011;5277;48.722;8.736;2022-09-21T11:19:40;1.05;;;0.75;;
10458;SDS011;5277;48.722;8.736;2022-09-21T11:28:18;3.50;;;1.00;;
10458;SDS011;5277;48.722;8.736;2022-09-21T11:47:28;1.20;;;0.90;;
10458;SDS011;5277;48.722;8.736;2022-09-21T11:50:19;2.30;;;1.10;;
10458;SDS011;5277;48.722;8.736;2022-09-21T11:55:38;2.55;;;1.10;;
10458;SDS011;5277;48.722;8.736;2022-09-21T11:58:43;1.52;;;0.95;;
10458;SDS011;5277;48.722;8.736;2022-09-21T12:06:48;1.85;;;1.10;;
10458;SDS011;5277;48.722;8.736;2022-09-21T12:09:41;2.67;;;1.10;;
10458;SDS011;5277;48.722;8.736;2022-09-21T12:12:28;2.28;;;0.98;;
10458;SDS011;5277;48.722;8.736;2022-09-21T12:17:38;2.40;;;1.00;;
10458;SDS011;5277;48.722;8.736;2022-09-21T12:22:56;2.35;;;1.13;;
10458;SDS011;5277;48.722;8.736;2022-09-21T12:25:39;2.08;;;0.88;;
10458;SDS011;5277;48.722;8.736;2022-09-21T12:30:54;1.25;;;0.90;;
10458;SDS011;5277;48.722;8.736;2022-09-21T12:36:07;3.63;;;1.00;;
10458;SDS011;5277;48.722;8.736;2022-09-21T12:42:04;2.72;;;1.10;;
10458;SDS011;5277;48.722;8.736;2022-09-21T12:44:46;2.42;;;1.20;;
10458;SDS011;5277;48.722;8.736;2022-09-21T12:50:26;3.35;;;1.00;;
10458;SDS011;5277;48.722;8.736;2022-09-21T12:52:54;2.17;;;1.00;;
10458;SDS011;5277;48.722;8.736;2022-09-21T12:55:30;2.13;;;0.98;;
10458;SDS011;5277;48.722;8.736;2022-09-21T12:58:22;1.27;;;0.80;;
10458;SDS011;5277;48.722;8.736;2022-09-21T13:12:46;3.03;;;0.98;;
10458;SDS011;5277;48.722;8.736;2022-09-21T13:18:26;2.90;;;0.90;;
10458;SDS011;5277;48.722;8.736;2022-09-21T13:20:58;3.22;;;0.90;;
10458;SDS011;5277;48.722;8.736;2022-09-21T13:23:56;5.05;;;1.00;;
10458;SDS011;5277;48.722;8.736;2022-09-21T13:26:35;3.90;;;1.60;;
10458;SDS011;5277;48.722;8.736;2022-09-21T13:34:44;2.33;;;0.85;;
10458;SDS011;5277;48.722;8.736;2022-09-21T13:39:42;3.08;;;1.00;;
10458;SDS011;5277;48.722;8.736;2022-09-21T13:42:44;2.08;;;0.80;;
10458;SDS011;5277;48.722;8.736;2022-09-21T13:47:44;2.30;;;0.90;;
10458;SDS011;5277;48.722;8.736;2022-09-21T13:50:26;2.95;;;0.70;;
10458;SDS011;5277;48.722;8.736;2022-09-21T13:53:02;1.92;;;0.90;;
10458;SDS011;5277;48.722;8.736;2022-09-21T13:55:38;1.50;;;0.70;;
10458;SDS011;5277;48.722;8.736;2022-09-21T13:58:15;3.10;;;0.70;;
10458;SDS011;5277;48.722;8.736;2022-09-21T14:06:20;1.98;;;0.93;;
10458;SDS011;5277;48.722;8.736;2022-09-21T14:08:51;7.22;;;1.20;;
10458;SDS011;5277;48.722;8.736;2022-09-21T14:11:28;1.05;;;0.70;;
10458;SDS011;5277;48.722;8.736;2022-09-21T14:27:19;6.25;;;0.90;;
10458;SDS011;5277;48.722;8.736;2022-09-21T14:29:58;0.85;;;0.70;;
10458;SDS011;5277;48.722;8.736;2022-09-21T14:32:34;1.48;;;0.60;;
10458;SDS011;5277;48.722;8.736;2022-09-21T14:35:23;1.55;;;0.70;;
10458;SDS011;5277;48.722;8.736;2022-09-21T14:40:52;2.75;;;0.80;;
10458;SDS011;5277;48.722;8.736;2022-09-21T14:43:30;1.88;;;0.90;;
10458;SDS011;5277;48.722;8.736;2022-09-21T14:57:43;1.83;;;0.75;;
10458;SDS011;5277;48.722;8.736;2022-09-21T15:00:20;1.70;;;1.00;;
10458;SDS011;5277;48.722;8.736;2022-09-21T15:02:52;3.30;;;0.90;;
10458;SDS011;5277;48.722;8.736;2022-09-21T15:05:42;4.15;;;0.80;;
10458;SDS011;5277;48.722;8.736;2022-09-21T15:08:27;2.95;;;1.05;;
10458;SDS011;5277;48.722;8.736;2022-09-21T15:11:36;3.03;;;0.90;;
10458;SDS011;5277;48.722;8.736;2022-09-21T15:14:19;1.27;;;0.90;;
10458;SDS011;5277;48.722;8.736;2022-09-21T15:16:56;0.82;;;0.68;;
10458;SDS011;5277;48.722;8.736;2022-09-21T15:19:34;2.15;;;0.73;;
10458;SDS011;5277;48.722;8.736;2022-09-21T15:22:17;2.88;;;0.80;;
10458;SDS011;5277;48.722;8.736;2022-09-21T15:24:55;1.77;;;0.90;;
10458;SDS011;5277;48.722;8.736;2022-09-21T15:27:26;1.95;;;0.60;;
10458;SDS011;5277;48.722;8.736;2022-09-21T15:30:01;0.90;;;0.80;;
10458;SDS011;5277;48.722;8.736;2022-09-21T15:32:42;2.38;;;0.77;;
10458;SDS011;5277;48.722;8.736;2022-09-21T15:35:20;0.95;;;0.80;;
10458;SDS011;5277;48.722;8.736;2022-09-21T15:37:49;2.80;;;0.70;;
10458;SDS011;5277;48.722;8.736;2022-09-21T15:40:26;0.85;;;0.60;;
10458;SDS011;5277;48.722;8.736;2022-09-21T15:48:10;1.40;;;0.77;;
10458;SDS011;5277;48.722;8.736;2022-09-21T15:50:37;1.40;;;0.80;;
10458;SDS011;5277;48.722;8.736;2022-09-21T15:53:07;1.77;;;0.60;;
10458;SDS011;5277;48.722;8.736;2022-09-21T15:55:46;0.65;;;0.55;;
10458;SDS011;5277;48.722;8.736;2022-09-21T15:58:29;1.63;;;0.70;;
10458;SDS011;5277;48.722;8.736;2022-09-21T16:01:01;3.03;;;0.82;;
10458;SDS011;5277;48.722;8.736;2022-09-21T16:03:33;5.82;;;0.80;;
10458;SDS011;5277;48.722;8.736;2022-09-21T16:05:59;2.15;;;0.75;;
10458;SDS011;5277;48.722;8.736;2022-09-21T16:08:50;6.07;;;1.15;;
10458;SDS011;5277;48.722;8.736;2022-09-21T16:14:02;3.42;;;1.00;;
10458;SDS011;5277;48.722;8.736;2022-09-21T16:22:12;4.47;;;1.00;;
10458;SDS011;5277;48.722;8.736;2022-09-21T16:24:47;3.60;;;1.00;;
10458;SDS011;5277;48.722;8.736;2022-09-21T16:27:17;1.63;;;1.10;;
10458;SDS011;5277;48.722;8.736;2022-09-21T16:29:44;2.38;;;0.90;;
10458;SDS011;5277;48.722;8.736;2022-09-21T16:34:48;1.85;;;1.13;;
10458;SDS011;5277;48.722;8.736;2022-09-21T16:39:46;1.55;;;0.90;;
10458;SDS011;5277;48.722;8.736;2022-09-21T16:42:12;3.78;;;1.38;;
10458;SDS011;5277;48.722;8.736;2022-09-21T16:44:40;5.65;;;1.20;;
10458;SDS011;5277;48.722;8.736;2022-09-21T16:47:13;4.95;;;1.35;;
10458;SDS011;5277;48.722;8.736;2022-09-21T16:49:46;1.70;;;1.40;;
10458;SDS011;5277;48.722;8.736;2022-09-21T16:52:12;6.20;;;1.27;;
10458;SDS011;5277;48.722;8.736;2022-09-21T16:54:40;2.85;;;1.50;;
10458;SDS011;5277;48.722;8.736;2022-09-21T16:57:06;5.90;;;1.58;;
10458;SDS011;5277;48.722;8.736;2022-09-21T16:59:31;1.75;;;1.50;;
10458;SDS011;5277;48.722;8.736;2022-09-21T17:01:58;2.75;;;1.50;;
10458;SDS011;5277;48.722;8.736;2022-09-21T17:04:27;2.28;;;1.42;;
10458;SDS011;5277;48.722;8.736;2022-09-21T17:06:53;2.42;;;1.52;;
10458;SDS011;5277;48.722;8.736;2022-09-21T17:09:24;2.40;;;1.63;;
10458;SDS011;5277;48.722;8.736;2022-09-21T17:11:55;2.40;;;1.50;;
10458;SDS011;5277;48.722;8.736;2022-09-21T17:14:24;5.65;;;1.60;;
10458;SDS011;5277;48.722;8.736;2022-09-21T17:16:50;2.78;;;1.65;;
10458;SDS011;5277;48.722;8.736;2022-09-21T17:19:18;5.43;;;1.45;;
10458;SDS011;5277;48.722;8.736;2022-09-21T17:21:45;4.13;;;1.80;;
10458;SDS011;5277;48.722;8.736;2022-09-21T17:24:11;2.22;;;1.58;;
10458;SDS011;5277;48.722;8.736;2022-09-21T17:26:39;1.83;;;1.40;;
10458;SDS011;5277;48.722;8.736;2022-09-21T17:29:38;2.67;;;1.60;;
10458;SDS011;5277;48.722;8.736;2022-09-21T17:32:04;2.65;;;1.55;;
10458;SDS011;5277;48.722;8.736;2022-09-21T17:34:34;4.10;;;1.90;;
10458;SDS011;5277;48.722;8.736;2022-09-21T17:37:00;4.57;;;2.00;;
10458;SDS011;5277;48.722;8.736;2022-09-21T17:39:26;4.65;;;2.10;;
10458;SDS011;5277;48.722;8.736;2022-09-21T17:47:27;2.70;;;1.80;;
10458;SDS011;5277;48.722;8.736;2022-09-21T17:52:39;2.13;;;1.42;;
10458;SDS011;5277;48.722;8.736;2022-09-21T17:55:25;7.53;;;2.58;;
10458;SDS011;5277;48.722;8.736;2022-09-21T18:01:07;3.83;;;2.88;;
10458;SDS011;5277;48.722;8.736;2022-09-21T18:04:00;4.10;;;2.70;;
10458;SDS011;5277;48.722;8.736;2022-09-21T18:06:27;3.95;;;2.67;;
10458;SDS011;5277;48.722;8.736;2022-09-21T18:08:53;5.93;;;2.17;;
10458;SDS011;5277;48.722;8.736;2022-09-21T18:25:30;4.78;;;3.08;;
10458;SDS011;5277;48.722;8.736;2022-09-21T18:27:56;4.47;;;2.92;;
10458;SDS011;5277;48.722;8.736;2022-09-21T18:30:23;5.63;;;3.25;;
10458;SDS011;5277;48.722;8.736;2022-09-21T18:41:01;2.33;;;2.03;;
10458;SDS011;5277;48.722;8.736;2022-09-21T18:43:59;4.68;;;2.38;;
10458;SDS011;5277;48.722;8.736;2022-09-21T18:52:11;4.55;;;2.20;;
10458;SDS011;5277;48.722;8.736;2022-09-21T18:54:49;5.60;;;2.30;;
10458;SDS011;5277;48.722;8.736;2022-09-21T18:57:15;2.75;;;1.90;;
10458;SDS011;5277;48.722;8.736;2022-09-21T18:59:41;3.35;;;2.03;;
10458;SDS011;5277;48.722;8.736;2022-09-21T19:02:11;4.55;;;1.85;;
10458;SDS011;5277;48.722;8.736;2022-09-21T19:04:40;5.03;;;1.90;;
10458;SDS011;5277;48.722;8.736;2022-09-21T19:13:02;7.18;;;2.30;;
10458;SDS011;5277;48.722;8.736;2022-09-21T19:15:35;5.07;;;2.77;;
10458;SDS011;5277;48.722;8.736;2022-09-21T19:25:58;6.30;;;2.20;;
10458;SDS011;5277;48.722;8.736;2022-09-21T19:31:45;6.73;;;3.60;;
10458;SDS011;5277;48.722;8.736;2022-09-21T19:34:15;4.70;;;2.27;;
10458;SDS011;5277;48.722;8.736;2022-09-21T19:36:42;3.77;;;2.20;;
10458;SDS011;5277;48.722;8.736;2022-09-21T19:39:09;4.33;;;2.20;;
10458;SDS011;5277;48.722;8.736;2022-09-21T19:41:47;6.60;;;1.87;;
10458;SDS011;5277;48.722;8.736;2022-09-21T19:50:33;6.87;;;2.50;;
10458;SDS011;5277;48.722;8.736;2022-09-21T19:53:04;4.43;;;2.20;;
10458;SDS011;5277;48.722;8.736;2022-09-21T19:55:49;2.73;;;2.00;;
10458;SDS011;5277;48.722;8.736;2022-09-21T19:58:34;5.93;;;2.00;;
10458;SDS011;5277;48.722;8.736;2022-09-21T20:01:19;3.67;;;2.20;;
10458;SDS011;5277;48.722;8.736;2022-09-21T20:03:45;3.13;;;2.07;;
10458;SDS011;5277;48.722;8.736;2022-09-21T20:09:07;4.27;;;2.50;;